GCFV/FUE METAR and TAF weather

Enter ICAO airport designator
Station Type Date Time Source
GCFV METAR 2022/06/27 18:30 UTC NOAA

GCFV 271830Z 02018KT 9999 BKN034 24/16 Q1019


Station Type Date Time Source
GCFV Decoded METAR 2022/06/27 18:30 UTC NOAA

Fuerteventura / Aeropuerto, Spain (GCFV) 28-27N 013-52W 30M
Jun 27, 2022 - 02:30 PM EDT / 2022.06.27 1830 UTC
Wind: from the NNE (020 degrees) at 21 MPH (18 KT):0
Visibility: greater than 7 mile(s):0
Sky conditions: mostly cloudy
Temperature: 75 F (24 C)
Dew Point: 60 F (16 C)
Relative Humidity: 60%
Pressure (altimeter): 30.09 in. Hg (1019 hPa)
ob: GCFV 271830Z 02018KT 9999 BKN034 24/16 Q1019
cycle: 18

Station Type Date Time Source
GCFV TAF 2022/06/27 15:27 UTC NOAA

TAF TAF GCFV 271400Z 2715/2815 02018KT 9999 FEW030 TX25/2814Z TN20/2806Z PROB30
TEMPO 2715/2720 02017G27KT

Example: see airport list